createdAt,value
2022-09-21T00:01:03.655Z,8.7
2022-09-21T00:02:19.940Z,8.6
2022-09-21T00:03:36.242Z,8.6
2022-09-21T00:04:52.521Z,8.6
2022-09-21T00:06:08.811Z,8.5
2022-09-21T00:07:25.100Z,8.5
2022-09-21T00:08:41.405Z,8.5
2022-09-21T00:09:57.701Z,8.4
2022-09-21T00:11:13.990Z,8.4
2022-09-21T00:12:30.291Z,8.4
2022-09-21T00:13:45.600Z,8.4
2022-09-21T00:15:01.880Z,8.3
2022-09-21T00:16:18.177Z,8.4
2022-09-21T00:17:34.477Z,8.3
2022-09-21T00:18:50.764Z,8.3
2022-09-21T00:20:07.056Z,8.3
2022-09-21T00:21:23.356Z,8.3
2022-09-21T00:22:39.648Z,8.3
2022-09-21T00:23:55.946Z,8.3
2022-09-21T00:25:12.238Z,8.3
2022-09-21T00:26:28.526Z,8.3
2022-09-21T00:27:44.836Z,8.2
2022-09-21T00:29:01.134Z,8.3
2022-09-21T00:30:17.422Z,8.3
2022-09-21T00:31:32.736Z,8.3
2022-09-21T00:32:49.023Z,8.3
2022-09-21T00:34:05.320Z,8.3
2022-09-21T00:35:21.616Z,8.2
2022-09-21T00:36:37.916Z,8.2
2022-09-21T00:37:54.206Z,8.2
2022-09-21T00:39:10.492Z,8.2
2022-09-21T00:40:26.786Z,8.2
2022-09-21T00:41:43.085Z,8.2
2022-09-21T00:42:59.379Z,8.2
2022-09-21T00:44:15.670Z,8.2
2022-09-21T00:45:31.958Z,8.2
2022-09-21T00:46:48.258Z,8.2
2022-09-21T00:48:03.571Z,8.2
2022-09-21T00:49:19.867Z,8.1
2022-09-21T00:50:36.148Z,8.1
2022-09-21T00:51:52.443Z,8.1
2022-09-21T00:53:08.743Z,8
2022-09-21T00:54:25.000Z,8
2022-09-21T00:55:41.334Z,7.9
2022-09-21T00:56:57.631Z,7.9
2022-09-21T00:58:13.920Z,7.9
2022-09-21T00:59:30.213Z,7.9
2022-09-21T01:00:46.507Z,7.8
2022-09-21T01:02:02.791Z,7.8
2022-09-21T01:03:19.096Z,7.8
2022-09-21T01:04:34.408Z,7.9
2022-09-21T01:05:50.690Z,7.8
2022-09-21T01:07:06.993Z,7.8
2022-09-21T01:08:23.277Z,7.8
2022-09-21T01:09:39.588Z,7.8
2022-09-21T01:10:55.868Z,7.8
2022-09-21T01:12:12.159Z,7.7
2022-09-21T01:13:28.462Z,7.7
2022-09-21T01:14:44.762Z,7.7
2022-09-21T01:16:01.049Z,7.7
2022-09-21T01:17:17.337Z,7.7
2022-09-21T01:18:33.626Z,7.6
2022-09-21T01:19:49.921Z,7.6
2022-09-21T01:21:05.233Z,7.6
2022-09-21T01:22:21.541Z,7.6
2022-09-21T01:23:37.827Z,7.7
2022-09-21T01:24:54.114Z,7.6
2022-09-21T01:26:10.408Z,7.7
2022-09-21T01:27:26.713Z,7.8
2022-09-21T01:28:42.994Z,7.8
2022-09-21T01:29:59.313Z,7.8
2022-09-21T01:31:15.589Z,7.9
2022-09-21T01:32:31.880Z,7.9
2022-09-21T01:33:48.175Z,7.9
2022-09-21T01:35:04.471Z,7.9
2022-09-21T01:36:20.758Z,8
2022-09-21T01:37:36.077Z,8
2022-09-21T01:38:52.363Z,8
2022-09-21T01:40:08.669Z,8
2022-09-21T01:41:24.969Z,8
2022-09-21T01:42:41.268Z,8
2022-09-21T01:43:57.568Z,7.9
2022-09-21T01:45:13.846Z,7.9
2022-09-21T01:46:30.130Z,7.9
2022-09-21T01:47:46.431Z,7.9
2022-09-21T01:49:02.725Z,7.8
2022-09-21T01:50:19.014Z,7.8
2022-09-21T01:51:35.313Z,7.8
2022-09-21T01:52:51.614Z,7.8
2022-09-21T01:54:06.912Z,7.8
2022-09-21T01:55:23.205Z,7.8
2022-09-21T01:56:39.497Z,7.7
2022-09-21T01:57:55.785Z,7.7
2022-09-21T01:59:12.085Z,7.7
2022-09-21T02:00:28.382Z,7.6
2022-09-21T02:01:44.670Z,7.5
2022-09-21T02:03:00.971Z,7.5
2022-09-21T02:04:17.268Z,7.5
2022-09-21T02:05:33.547Z,7.5
2022-09-21T02:06:49.850Z,7.5
2022-09-21T02:08:06.137Z,7.5
2022-09-21T02:09:22.428Z,7.5
2022-09-21T02:10:37.758Z,7.5
2022-09-21T02:11:54.046Z,7.4
2022-09-21T02:13:10.333Z,7.5
2022-09-21T02:14:26.630Z,7.4
2022-09-21T02:15:42.914Z,7.4
2022-09-21T02:16:59.216Z,7.4
2022-09-21T02:18:15.515Z,7.4
2022-09-21T02:19:31.792Z,7.3
2022-09-21T02:20:48.084Z,7.3
2022-09-21T02:22:04.383Z,7.3
2022-09-21T02:23:20.685Z,7.2
2022-09-21T02:24:36.972Z,7.2
2022-09-21T02:25:53.257Z,7.2
2022-09-21T02:27:08.583Z,7.2
2022-09-21T02:28:24.873Z,7.2
2022-09-21T02:29:41.160Z,7.2
2022-09-21T02:30:57.462Z,7.2
2022-09-21T02:32:13.743Z,7.2
2022-09-21T02:33:30.036Z,7.2
2022-09-21T02:34:46.331Z,7.2
2022-09-21T02:36:02.625Z,7.2
2022-09-21T02:37:18.916Z,7.2
2022-09-21T02:38:35.221Z,7.2
2022-09-21T02:39:51.513Z,7.2
2022-09-21T02:41:07.805Z,7.2
2022-09-21T02:42:24.102Z,7.1
2022-09-21T02:43:39.417Z,7.1
2022-09-21T02:44:55.699Z,7.1
2022-09-21T02:46:11.994Z,7.1
2022-09-21T02:47:28.283Z,7.1
2022-09-21T02:48:44.583Z,7.1
2022-09-21T02:49:59.908Z,7.1
2022-09-21T02:51:16.189Z,7
2022-09-21T02:52:32.480Z,7
2022-09-21T02:53:48.000Z,7
2022-09-21T02:55:05.064Z,7.1
2022-09-21T02:56:21.378Z,7.1
2022-09-21T02:57:37.664Z,7
2022-09-21T02:58:53.944Z,7
2022-09-21T03:00:10.247Z,6.9
2022-09-21T03:01:26.535Z,6.8
2022-09-21T03:02:42.830Z,6.8
2022-09-21T03:03:59.118Z,6.8
2022-09-21T03:05:15.412Z,6.8
2022-09-21T03:06:30.733Z,6.7
2022-09-21T03:07:47.018Z,6.7
2022-09-21T03:09:03.315Z,6.7
2022-09-21T03:10:19.614Z,6.7
2022-09-21T03:11:35.891Z,6.7
2022-09-21T03:12:52.183Z,6.7
2022-09-21T03:14:08.488Z,6.7
2022-09-21T03:15:24.788Z,6.7
2022-09-21T03:16:41.064Z,6.7
2022-09-21T03:17:57.363Z,6.8
2022-09-21T03:19:13.651Z,6.8
2022-09-21T03:20:29.955Z,6.8
2022-09-21T03:21:46.246Z,6.8
2022-09-21T03:23:01.552Z,6.8
2022-09-21T03:24:17.848Z,6.8
2022-09-21T03:25:34.140Z,6.8
2022-09-21T03:26:50.450Z,6.8
2022-09-21T03:28:06.731Z,6.8
2022-09-21T03:29:23.023Z,6.8
2022-09-21T03:30:39.309Z,6.8
2022-09-21T03:31:55.609Z,6.9
2022-09-21T03:33:11.913Z,6.9
2022-09-21T03:34:28.190Z,7
2022-09-21T03:35:44.496Z,7
2022-09-21T03:37:00.780Z,7
2022-09-21T03:38:17.081Z,7
2022-09-21T03:39:32.384Z,7
2022-09-21T03:40:48.673Z,7
2022-09-21T03:42:04.989Z,7.1
2022-09-21T03:43:21.262Z,7.1
2022-09-21T03:44:37.570Z,7.1
2022-09-21T03:45:53.849Z,7.1
2022-09-21T03:47:10.144Z,7.1
2022-09-21T03:48:26.445Z,7.1
2022-09-21T03:49:42.748Z,7.1
2022-09-21T03:50:59.028Z,7.1
2022-09-21T03:52:15.311Z,7.1
2022-09-21T03:53:31.605Z,7.1
2022-09-21T03:54:47.911Z,7.1
2022-09-21T03:56:03.227Z,7.1
2022-09-21T03:57:19.514Z,7.1
2022-09-21T03:58:35.823Z,7.1
2022-09-21T03:59:52.093Z,7.1
2022-09-21T04:01:08.398Z,7.1
2022-09-21T04:02:24.689Z,7
2022-09-21T04:03:40.968Z,7
2022-09-21T04:04:57.259Z,7
2022-09-21T04:06:13.558Z,7.1
2022-09-21T04:07:29.858Z,7.1
2022-09-21T04:08:46.156Z,7.1
2022-09-21T04:10:02.446Z,7.1
2022-09-21T04:11:18.746Z,7.1
2022-09-21T04:12:34.041Z,7.1
2022-09-21T04:13:50.333Z,7.1
2022-09-21T04:15:06.627Z,7.1
2022-09-21T04:16:22.937Z,7.1
2022-09-21T04:17:39.226Z,7.1
2022-09-21T04:18:55.521Z,7.1
2022-09-21T04:20:11.804Z,7.1
2022-09-21T04:21:28.116Z,7.1
2022-09-21T04:22:44.400Z,7.1
2022-09-21T04:24:00.681Z,7.1
2022-09-21T04:25:16.993Z,7.1
2022-09-21T04:26:33.275Z,7.1
2022-09-21T04:27:49.508Z,7
2022-09-21T04:29:04.813Z,7.1
2022-09-21T04:30:21.079Z,7
2022-09-21T04:31:37.313Z,7.1
2022-09-21T04:32:53.571Z,7
2022-09-21T04:34:09.805Z,7
2022-09-21T04:35:26.043Z,7
2022-09-21T04:36:42.303Z,7
2022-09-21T04:37:58.552Z,7
2022-09-21T04:39:14.786Z,7
2022-09-21T04:40:31.032Z,6.9
2022-09-21T04:41:47.251Z,6.9
2022-09-21T04:43:03.506Z,6.9
2022-09-21T04:44:19.740Z,6.9
2022-09-21T04:45:34.994Z,6.9
2022-09-21T04:46:51.237Z,6.9
2022-09-21T04:48:07.469Z,6.8
2022-09-21T04:49:23.703Z,6.8
2022-09-21T04:50:39.954Z,6.8
2022-09-21T04:51:56.191Z,6.7
2022-09-21T04:53:12.425Z,6.7
2022-09-21T04:54:28.678Z,6.7
2022-09-21T04:55:44.906Z,6.7
2022-09-21T04:57:01.150Z,6.7
2022-09-21T04:58:17.386Z,6.7
2022-09-21T04:59:33.624Z,6.7
2022-09-21T05:00:49.875Z,6.7
2022-09-21T05:02:05.132Z,6.7
2022-09-21T05:03:21.358Z,6.7
2022-09-21T05:04:37.604Z,6.7
2022-09-21T05:05:53.836Z,6.7
2022-09-21T05:07:10.074Z,6.7
2022-09-21T05:08:26.313Z,6.7
2022-09-21T05:09:42.563Z,6.7
2022-09-21T05:10:58.801Z,6.7
2022-09-21T05:12:15.028Z,6.7
2022-09-21T05:13:31.279Z,6.7
2022-09-21T05:14:47.515Z,6.7
2022-09-21T05:16:03.748Z,6.7
2022-09-21T05:17:19.993Z,6.7
2022-09-21T05:18:35.241Z,6.8
2022-09-21T05:19:51.485Z,6.8
2022-09-21T05:21:07.730Z,6.8
2022-09-21T05:22:23.974Z,6.8
2022-09-21T05:23:40.210Z,6.8
2022-09-21T05:24:56.450Z,6.8
2022-09-21T05:26:12.687Z,6.8
2022-09-21T05:27:28.928Z,6.8
2022-09-21T05:28:45.174Z,6.8
2022-09-21T05:30:01.401Z,6.9
2022-09-21T05:31:17.642Z,6.9
2022-09-21T05:32:33.883Z,6.9
2022-09-21T05:33:50.134Z,6.9
2022-09-21T05:35:05.375Z,7
2022-09-21T05:36:21.616Z,6.9
2022-09-21T05:37:37.858Z,7
2022-09-21T05:38:54.099Z,7.1
2022-09-21T05:40:10.333Z,7.1
2022-09-21T05:41:26.577Z,7.1
2022-09-21T05:42:42.827Z,7.2
2022-09-21T05:43:59.062Z,7.2
2022-09-21T05:45:15.295Z,7.2
2022-09-21T05:46:31.535Z,7.3
2022-09-21T05:47:47.769Z,7.3
2022-09-21T05:49:04.023Z,7.3
2022-09-21T05:50:20.258Z,7.3
2022-09-21T05:51:35.509Z,7.3
2022-09-21T05:52:51.747Z,7.4
2022-09-21T05:54:07.992Z,7.4
2022-09-21T05:55:24.231Z,7.4
2022-09-21T05:56:40.466Z,7.5
2022-09-21T05:57:56.698Z,7.6
2022-09-21T05:59:12.938Z,7.6
2022-09-21T06:00:29.180Z,7.6
2022-09-21T06:01:45.425Z,7.6
2022-09-21T06:03:01.669Z,7.6
2022-09-21T06:04:17.904Z,7.6
2022-09-21T06:05:34.144Z,7.6
2022-09-21T06:06:50.384Z,7.6
2022-09-21T06:08:05.633Z,7.6
2022-09-21T06:09:21.876Z,7.6
2022-09-21T06:10:38.113Z,7.6
2022-09-21T06:11:54.348Z,7.6
2022-09-21T06:13:10.602Z,7.6
2022-09-21T06:14:26.841Z,7.7
2022-09-21T06:15:43.082Z,7.7
2022-09-21T06:16:59.305Z,7.8
2022-09-21T06:18:15.556Z,7.8
2022-09-21T06:19:31.782Z,7.8
2022-09-21T06:20:48.039Z,7.8
2022-09-21T06:22:04.265Z,7.8
2022-09-21T06:23:20.511Z,7.9
2022-09-21T06:24:35.758Z,7.9
2022-09-21T06:25:52.006Z,8
2022-09-21T06:27:08.248Z,8.1
2022-09-21T06:28:24.487Z,8.1
2022-09-21T06:29:40.725Z,8.2
2022-09-21T06:30:56.957Z,8.2
2022-09-21T06:32:13.201Z,8.2
2022-09-21T06:33:29.440Z,8.3
2022-09-21T06:34:45.678Z,8.3
2022-09-21T06:36:01.930Z,8.4
2022-09-21T06:37:18.148Z,8.4
2022-09-21T06:38:34.406Z,8.4
2022-09-21T06:39:50.638Z,8.5
2022-09-21T06:41:05.888Z,8.5
2022-09-21T06:42:22.138Z,8.5
2022-09-21T06:43:38.373Z,8.4
2022-09-21T06:44:54.609Z,8.5
2022-09-21T06:46:10.852Z,8.6
2022-09-21T06:47:27.086Z,8.6
2022-09-21T06:48:43.329Z,8.6
2022-09-21T06:49:59.563Z,8.7
2022-09-21T06:51:15.818Z,8.7
2022-09-21T06:52:32.053Z,8.7
2022-09-21T06:53:48.281Z,8.8
2022-09-21T06:55:04.527Z,8.8
2022-09-21T06:56:20.756Z,8.9
2022-09-21T06:57:36.015Z,8.9
2022-09-21T06:58:52.267Z,8.9
2022-09-21T07:00:08.500Z,8.9
2022-09-21T07:01:24.741Z,8.9
2022-09-21T07:02:40.978Z,8.9
2022-09-21T07:03:57.217Z,9
2022-09-21T07:05:12.478Z,9.1
2022-09-21T07:06:28.709Z,9.1
2022-09-21T07:07:44.956Z,9.2
2022-09-21T07:09:01.199Z,9.2
2022-09-21T07:10:17.435Z,9.1
2022-09-21T07:11:33.674Z,9.2
2022-09-21T07:12:49.907Z,9.2
2022-09-21T07:14:06.150Z,9.2
2022-09-21T07:15:22.394Z,9.3
2022-09-21T07:16:38.628Z,9.3
2022-09-21T07:17:54.881Z,9.3
2022-09-21T07:19:11.108Z,9.4
2022-09-21T07:20:27.343Z,9.5
2022-09-21T07:21:42.606Z,9.5
2022-09-21T07:22:58.838Z,9.5
2022-09-21T07:24:15.090Z,9.5
2022-09-21T07:25:31.331Z,9.5
2022-09-21T07:26:47.565Z,9.5
2022-09-21T07:28:03.812Z,9.5
2022-09-21T07:29:20.034Z,9.5
2022-09-21T07:30:36.273Z,9.6
2022-09-21T07:31:52.532Z,9.6
2022-09-21T07:33:08.765Z,9.6
2022-09-21T07:34:24.994Z,9.7
2022-09-21T07:35:41.234Z,9.7
2022-09-21T07:36:57.486Z,9.7
2022-09-21T07:38:12.726Z,9.8
2022-09-21T07:39:28.978Z,9.8
2022-09-21T07:40:45.208Z,9.9
2022-09-21T07:42:01.452Z,9.9
2022-09-21T07:43:17.704Z,10
2022-09-21T07:44:33.942Z,10.1
2022-09-21T07:45:50.180Z,10
2022-09-21T07:47:06.412Z,10.1
2022-09-21T07:48:22.652Z,10.1
2022-09-21T07:49:38.000Z,10.1
2022-09-21T07:50:55.133Z,10.2
2022-09-21T07:52:11.377Z,10.2
2022-09-21T07:53:27.616Z,10.3
2022-09-21T07:54:42.860Z,10.4
2022-09-21T07:55:59.116Z,10.4
2022-09-21T07:57:15.336Z,10.3
2022-09-21T07:58:31.581Z,10.3
2022-09-21T07:59:47.818Z,10.4
2022-09-21T08:01:04.057Z,10.5
2022-09-21T08:02:20.298Z,10.5
2022-09-21T08:03:36.547Z,10.5
2022-09-21T08:04:52.792Z,10.5
2022-09-21T08:06:09.025Z,10.6
2022-09-21T08:07:25.260Z,10.7
2022-09-21T08:08:41.496Z,10.8
2022-09-21T08:09:57.738Z,10.9
2022-09-21T08:11:13.006Z,10.9
2022-09-21T08:12:29.230Z,10.9
2022-09-21T08:13:45.482Z,10.8
2022-09-21T08:15:01.721Z,10.9
2022-09-21T08:16:17.951Z,11
2022-09-21T08:17:34.198Z,11
2022-09-21T08:18:50.438Z,11
2022-09-21T08:20:06.686Z,11.1
2022-09-21T08:21:22.910Z,11.2
2022-09-21T08:22:39.150Z,11.3
2022-09-21T08:23:55.408Z,11.4
2022-09-21T08:25:11.630Z,11.5
2022-09-21T08:26:27.876Z,11.5
2022-09-21T08:27:43.140Z,11.6
2022-09-21T08:28:59.374Z,11.6
2022-09-21T08:30:15.606Z,11.6
2022-09-21T08:31:31.854Z,11.7
2022-09-21T08:32:48.098Z,11.8
2022-09-21T08:34:04.327Z,11.8
2022-09-21T08:35:20.571Z,11.9
2022-09-21T08:36:36.816Z,11.8
2022-09-21T08:37:53.062Z,11.9
2022-09-21T08:39:09.285Z,12
2022-09-21T08:40:25.530Z,12.1
2022-09-21T08:41:41.773Z,12.3
2022-09-21T08:42:58.023Z,12.3
2022-09-21T08:44:13.275Z,12.3
2022-09-21T08:45:29.519Z,12.4
2022-09-21T08:46:45.758Z,12.5
2022-09-21T08:48:01.989Z,12.5
2022-09-21T08:49:18.225Z,12.4
2022-09-21T08:50:34.465Z,12.3
2022-09-21T08:51:50.704Z,12.2
2022-09-21T08:53:06.943Z,12.2
2022-09-21T08:54:23.201Z,12.3
2022-09-21T08:55:39.428Z,12.4
2022-09-21T08:56:55.667Z,12.5
2022-09-21T08:58:11.906Z,12.5
2022-09-21T08:59:28.159Z,12.5
2022-09-21T09:00:43.403Z,12.6
2022-09-21T09:01:59.645Z,12.7
2022-09-21T09:03:15.879Z,12.8
2022-09-21T09:04:32.126Z,12.8
2022-09-21T09:05:48.356Z,12.9
2022-09-21T09:07:04.595Z,12.8
2022-09-21T09:08:20.851Z,12.7
2022-09-21T09:09:37.089Z,12.7
2022-09-21T09:10:53.328Z,12.7
2022-09-21T09:12:09.558Z,12.8
2022-09-21T09:13:25.803Z,12.9
2022-09-21T09:14:42.039Z,13
2022-09-21T09:15:58.275Z,12.9
2022-09-21T09:17:13.529Z,13
2022-09-21T09:18:29.781Z,13
2022-09-21T09:19:46.006Z,13.1
2022-09-21T09:21:02.246Z,13.3
2022-09-21T09:22:18.495Z,13.4
2022-09-21T09:23:34.731Z,13.5
2022-09-21T09:24:50.974Z,13.6
2022-09-21T09:26:07.221Z,13.6
2022-09-21T09:27:23.455Z,13.4
2022-09-21T09:28:39.690Z,13.3
2022-09-21T09:29:55.931Z,13.3
2022-09-21T09:31:12.164Z,13.4
2022-09-21T09:32:28.423Z,13.5
2022-09-21T09:33:43.671Z,13.7
2022-09-21T09:34:59.905Z,14
2022-09-21T09:36:16.149Z,14.2
2022-09-21T09:37:32.391Z,14.4
2022-09-21T09:38:48.620Z,14.4
2022-09-21T09:40:04.867Z,14.5
2022-09-21T09:41:21.105Z,14.5
2022-09-21T09:42:37.338Z,14.5
2022-09-21T09:43:53.592Z,14.7
2022-09-21T09:45:09.821Z,14.4
2022-09-21T09:46:26.059Z,14.4
2022-09-21T09:47:42.292Z,14.6
2022-09-21T09:48:58.537Z,14.8
2022-09-21T09:50:13.785Z,15
2022-09-21T09:51:30.037Z,15.3
2022-09-21T09:52:46.270Z,15.3
2022-09-21T09:54:02.507Z,15.3
2022-09-21T09:55:18.744Z,15.6
2022-09-21T09:56:34.986Z,15.8
2022-09-21T09:57:51.229Z,15.9
2022-09-21T09:59:07.463Z,15.8
2022-09-21T10:00:23.692Z,15.6
2022-09-21T10:01:39.943Z,15.6
2022-09-21T10:02:56.183Z,15.7
2022-09-21T10:04:12.411Z,15.9
2022-09-21T10:05:28.665Z,16
2022-09-21T10:06:43.908Z,16.1
2022-09-21T10:08:00.140Z,16.1
2022-09-21T10:09:16.394Z,16.3
2022-09-21T10:10:32.623Z,16.2
2022-09-21T10:11:48.872Z,16.3
2022-09-21T10:13:05.094Z,16.3
2022-09-21T10:14:21.332Z,16.6
2022-09-21T10:15:37.571Z,16.6
2022-09-21T10:16:53.821Z,16.8
2022-09-21T10:18:10.060Z,16.8
2022-09-21T10:20:42.526Z,17.1
2022-09-21T10:21:58.772Z,17.1
2022-09-21T10:23:14.019Z,17
2022-09-21T10:24:30.268Z,16.5
2022-09-21T10:25:46.497Z,16.3
2022-09-21T10:27:02.741Z,16.2
2022-09-21T10:28:18.977Z,16.5
2022-09-21T10:29:35.227Z,16.9
2022-09-21T10:30:51.464Z,17.5
2022-09-21T10:33:23.929Z,17.9
2022-09-21T10:34:40.180Z,17.4
2022-09-21T10:35:56.409Z,17.3
2022-09-21T10:37:12.646Z,17.4
2022-09-21T10:38:28.885Z,17.4
2022-09-21T10:39:44.140Z,17.6
2022-09-21T10:41:00.376Z,17.6
2022-09-21T10:42:16.628Z,17.5
2022-09-21T10:43:32.857Z,17.5
2022-09-21T10:44:49.103Z,17.5
2022-09-21T10:46:05.332Z,16.8
2022-09-21T10:47:21.585Z,16.8
2022-09-21T10:48:37.821Z,16.9
2022-09-21T10:49:54.049Z,16.8
2022-09-21T10:51:10.289Z,16.6
2022-09-21T10:52:26.526Z,16.9
2022-09-21T10:53:42.767Z,17.3
2022-09-21T10:54:59.009Z,17.8
2022-09-21T10:56:14.270Z,18.1
2022-09-21T10:57:30.516Z,18.4
2022-09-21T10:58:46.736Z,18.3
2022-09-21T11:01:19.217Z,17.8
2022-09-21T11:02:35.469Z,17.6
2022-09-21T11:03:51.698Z,17.5
2022-09-21T11:05:07.934Z,17.2
2022-09-21T11:06:24.185Z,16.8
2022-09-21T11:07:40.423Z,16.5
2022-09-21T11:08:56.652Z,16.4
2022-09-21T11:10:12.900Z,16.3
2022-09-21T11:11:29.136Z,16.2
2022-09-21T11:12:44.382Z,16.2
2022-09-21T11:14:00.621Z,16.3
2022-09-21T11:15:16.861Z,16.2
2022-09-21T11:16:33.106Z,16.2
2022-09-21T11:17:49.352Z,16.3
2022-09-21T11:19:05.579Z,16.1
2022-09-21T11:20:20.848Z,15.9
2022-09-21T11:21:37.084Z,15.9
2022-09-21T11:22:53.329Z,16
2022-09-21T11:24:09.000Z,16
2022-09-21T11:25:25.792Z,16.2
2022-09-21T11:26:42.037Z,17
2022-09-21T11:27:58.268Z,17.3
2022-09-21T11:29:14.523Z,17.6
2022-09-21T11:30:30.752Z,17.4
2022-09-21T11:31:46.994Z,17.3
2022-09-21T11:33:03.233Z,17.5
2022-09-21T11:34:19.476Z,17.3
2022-09-21T11:35:35.713Z,17.4
2022-09-21T11:36:50.973Z,17.8
2022-09-21T11:38:07.197Z,18.3
2022-09-21T11:39:23.447Z,18.9
2022-09-21T11:40:39.686Z,19.3
2022-09-21T11:41:55.929Z,18.9
2022-09-21T11:43:12.155Z,18.5
2022-09-21T11:44:28.400Z,18.4
2022-09-21T11:45:44.635Z,18.5
2022-09-21T11:47:00.869Z,18.4
2022-09-21T11:48:17.127Z,18.1
2022-09-21T11:49:33.354Z,18.1
2022-09-21T11:50:49.588Z,18.4
2022-09-21T11:52:05.824Z,18.5
2022-09-21T11:53:21.082Z,18.7
2022-09-21T11:54:37.334Z,19
2022-09-21T11:55:53.576Z,19.3
2022-09-21T11:57:09.808Z,19.5
2022-09-21T11:58:26.054Z,19.5
2022-09-21T11:59:42.293Z,19.6
2022-09-21T12:00:58.536Z,19.6
2022-09-21T12:02:14.777Z,19.8
2022-09-21T12:03:31.008Z,19.5
2022-09-21T12:04:47.239Z,19.5
2022-09-21T12:06:03.480Z,19.3
2022-09-21T12:07:19.731Z,19
2022-09-21T12:08:35.962Z,19.1
2022-09-21T12:09:51.219Z,19
2022-09-21T12:11:07.457Z,18.9
2022-09-21T12:12:23.695Z,18.8
2022-09-21T12:13:39.939Z,18.6
2022-09-21T12:14:56.184Z,18.5
2022-09-21T12:16:12.430Z,18.3
2022-09-21T12:17:28.669Z,18.8
2022-09-21T12:18:44.909Z,18.9
2022-09-21T12:20:01.149Z,18.9
2022-09-21T12:21:17.377Z,18.8
2022-09-21T12:22:33.631Z,18.9
2022-09-21T12:23:49.864Z,18.9
2022-09-21T12:25:06.104Z,18.8
2022-09-21T12:26:21.357Z,18.6
2022-09-21T12:27:37.602Z,18.8
2022-09-21T12:28:53.838Z,18.9
2022-09-21T12:30:10.085Z,19.1
2022-09-21T12:31:26.326Z,19.5
2022-09-21T12:32:42.567Z,19.8
2022-09-21T12:33:58.805Z,20
2022-09-21T12:35:15.049Z,19.8
2022-09-21T12:36:31.272Z,19.8
2022-09-21T12:37:47.528Z,19.5
2022-09-21T12:39:03.762Z,19.5
2022-09-21T12:40:20.002Z,19.9
2022-09-21T12:41:36.250Z,20.3
2022-09-21T12:42:51.506Z,20.4
2022-09-21T12:44:07.747Z,20.3
2022-09-21T12:45:23.988Z,20.1
2022-09-21T12:46:40.218Z,19.6
2022-09-21T12:47:56.452Z,19.7
2022-09-21T12:49:12.708Z,19.8
2022-09-21T12:50:28.938Z,20
2022-09-21T12:51:45.184Z,20.1
2022-09-21T12:53:01.410Z,19.6
2022-09-21T12:54:17.667Z,18.9
2022-09-21T12:55:33.909Z,18.8
2022-09-21T12:56:50.133Z,18.8
2022-09-21T12:58:06.385Z,18.9
2022-09-21T12:59:21.643Z,19.1
2022-09-21T13:00:37.872Z,19.3
2022-09-21T13:01:54.104Z,19.8
2022-09-21T13:03:10.358Z,19.5
2022-09-21T13:04:26.593Z,19
2022-09-21T13:05:42.838Z,19.4
2022-09-21T13:06:59.080Z,19.5
2022-09-21T13:08:15.309Z,19.7
2022-09-21T13:09:31.554Z,19.7
2022-09-21T13:10:47.796Z,19.5
2022-09-21T13:12:04.029Z,19.3
2022-09-21T13:13:20.274Z,19.3
2022-09-21T13:14:36.514Z,19.3
2022-09-21T13:15:51.772Z,19.3
2022-09-21T13:17:08.002Z,19.3
2022-09-21T13:18:24.256Z,19.2
2022-09-21T13:19:40.480Z,19.3
2022-09-21T13:20:56.715Z,19.3
2022-09-21T13:22:12.960Z,19.3
2022-09-21T13:23:29.200Z,19.1
2022-09-21T13:24:45.435Z,19.3
2022-09-21T13:26:01.670Z,18.9
2022-09-21T13:27:17.924Z,18.9
2022-09-21T13:28:34.161Z,18.8
2022-09-21T13:29:50.403Z,18.8
2022-09-21T13:31:06.627Z,19.1
2022-09-21T13:32:21.882Z,19
2022-09-21T13:33:38.122Z,18.8
2022-09-21T13:34:54.370Z,18.9
2022-09-21T13:36:10.601Z,19.2
2022-09-21T13:37:26.860Z,19.2
2022-09-21T13:38:43.088Z,19.2
2022-09-21T13:39:59.336Z,19.2
2022-09-21T13:41:15.576Z,19.3
2022-09-21T13:42:31.817Z,19.4
2022-09-21T13:43:48.053Z,19.3
2022-09-21T13:45:04.291Z,19.5
2022-09-21T13:46:20.521Z,19.4
2022-09-21T13:47:36.776Z,19.7
2022-09-21T13:48:52.020Z,19.5
2022-09-21T13:50:08.270Z,19.4
2022-09-21T13:51:24.494Z,19.7
2022-09-21T13:52:40.739Z,19.9
2022-09-21T13:53:56.981Z,20.3
2022-09-21T13:55:13.209Z,20.6
2022-09-21T13:56:29.454Z,20.4
2022-09-21T13:57:45.704Z,20.1
2022-09-21T13:59:01.936Z,20.2
2022-09-21T14:00:18.181Z,20.4
2022-09-21T14:01:34.406Z,19.7
2022-09-21T14:02:50.654Z,19.6
2022-09-21T14:04:06.903Z,19.6
2022-09-21T14:05:22.134Z,19.9
2022-09-21T14:06:38.388Z,20.1
2022-09-21T14:07:54.631Z,20.2
2022-09-21T14:09:10.855Z,20.5
2022-09-21T14:10:27.102Z,20.2
2022-09-21T14:11:43.326Z,19.3
2022-09-21T14:12:59.566Z,18.9
2022-09-21T14:14:15.821Z,18.6
2022-09-21T14:15:32.050Z,18.7
2022-09-21T14:16:48.281Z,18.6
2022-09-21T14:18:04.531Z,18.4
2022-09-21T14:19:20.776Z,18
2022-09-21T14:20:37.024Z,18
2022-09-21T14:21:52.268Z,18.3
2022-09-21T14:23:08.522Z,18.5
2022-09-21T14:24:24.755Z,19
2022-09-21T14:25:40.990Z,19.5
2022-09-21T14:26:57.224Z,19.9
2022-09-21T14:28:13.490Z,20.2
2022-09-21T14:29:29.712Z,19.6
2022-09-21T14:30:45.951Z,19.4
2022-09-21T14:32:02.181Z,19.6
2022-09-21T14:33:18.429Z,19.7
2022-09-21T14:34:34.669Z,19.1
2022-09-21T14:35:50.909Z,19.3
2022-09-21T14:37:07.153Z,19.7
2022-09-21T14:38:22.395Z,20
2022-09-21T14:39:38.642Z,20.2
2022-09-21T14:40:54.879Z,20.2
2022-09-21T14:42:11.132Z,20.1
2022-09-21T14:43:27.368Z,19.7
2022-09-21T14:44:43.595Z,19.4
2022-09-21T14:45:59.836Z,18.9
2022-09-21T14:47:16.091Z,18.4
2022-09-21T14:48:32.307Z,18.1
2022-09-21T14:49:48.560Z,18.1
2022-09-21T14:51:04.796Z,18.2
2022-09-21T14:52:21.036Z,18.5
2022-09-21T14:53:37.267Z,18.7
2022-09-21T14:54:52.523Z,18.4
2022-09-21T14:56:08.772Z,18.4
2022-09-21T14:57:25.010Z,18.3
2022-09-21T14:58:41.251Z,18.1
2022-09-21T14:59:57.493Z,17.7
2022-09-21T15:01:13.740Z,17.6
2022-09-21T15:02:29.978Z,17.6
2022-09-21T15:03:46.216Z,17.5
2022-09-21T15:05:02.456Z,17.5
2022-09-21T15:06:18.698Z,17.6
2022-09-21T15:07:34.940Z,17.5
2022-09-21T15:08:51.182Z,17.5
2022-09-21T15:10:07.430Z,17.5
2022-09-21T15:11:22.677Z,17.6
2022-09-21T15:12:38.913Z,17.7
2022-09-21T15:13:55.140Z,17.7
2022-09-21T15:15:11.387Z,17.5
2022-09-21T15:16:27.628Z,17.4
2022-09-21T15:17:43.871Z,17.3
2022-09-21T15:19:00.120Z,17.2
2022-09-21T15:20:16.353Z,17.4
2022-09-21T15:22:48.831Z,17.4
2022-09-21T15:24:05.072Z,17.8
2022-09-21T15:25:21.314Z,17.9
2022-09-21T15:26:37.569Z,17.9
2022-09-21T15:27:52.818Z,18.1
2022-09-21T15:29:09.035Z,18
2022-09-21T15:30:25.301Z,17.9
2022-09-21T15:31:41.529Z,17.6
2022-09-21T15:32:57.772Z,17.5
2022-09-21T15:34:14.010Z,17.4
2022-09-21T15:35:29.261Z,17.5
2022-09-21T15:36:45.508Z,17.5
2022-09-21T15:38:01.766Z,17.5
2022-09-21T15:39:17.993Z,17.5
2022-09-21T15:40:34.222Z,17.4
2022-09-21T15:41:50.463Z,17.5
2022-09-21T15:43:06.719Z,17.5
2022-09-21T15:45:39.181Z,17.3
2022-09-21T15:46:55.428Z,17.3
2022-09-21T15:48:11.677Z,17.2
2022-09-21T15:49:27.915Z,17.1
2022-09-21T15:50:44.156Z,17
2022-09-21T15:51:59.405Z,17
2022-09-21T15:53:15.647Z,17
2022-09-21T15:54:31.888Z,16.9
2022-09-21T15:55:48.114Z,16.8
2022-09-21T15:57:04.356Z,16.8
2022-09-21T15:58:20.603Z,16.7
2022-09-21T15:59:36.838Z,16.6
2022-09-21T16:00:53.072Z,16.5
2022-09-21T16:02:09.311Z,16.4
2022-09-21T16:03:25.568Z,16.4
2022-09-21T16:04:41.801Z,16.3
2022-09-21T16:05:58.041Z,16.2
2022-09-21T16:07:14.271Z,16.2
2022-09-21T16:08:29.544Z,16.1
2022-09-21T16:09:45.762Z,16
2022-09-21T16:11:02.001Z,16
2022-09-21T16:12:18.246Z,15.9
2022-09-21T16:13:34.491Z,15.9
2022-09-21T16:14:50.731Z,15.8
2022-09-21T16:16:06.960Z,15.8
2022-09-21T16:17:23.205Z,15.8
2022-09-21T16:18:39.463Z,15.7
2022-09-21T16:19:55.681Z,15.7
2022-09-21T16:21:11.926Z,15.7
2022-09-21T16:22:28.165Z,15.6
2022-09-21T16:23:44.404Z,15.6
2022-09-21T16:24:59.665Z,15.6
2022-09-21T16:26:15.892Z,15.5
2022-09-21T16:27:32.142Z,15.4
2022-09-21T16:28:48.370Z,15.4
2022-09-21T16:30:04.617Z,15.4
2022-09-21T16:31:20.871Z,15.4
2022-09-21T16:32:37.089Z,15.3
2022-09-21T16:33:53.332Z,15.2
2022-09-21T16:35:09.567Z,15.1
2022-09-21T16:36:25.808Z,15
2022-09-21T16:37:42.048Z,14.8
2022-09-21T16:38:58.284Z,14.6
2022-09-21T16:40:14.530Z,14.5
2022-09-21T16:41:29.778Z,14.4
2022-09-21T16:42:46.035Z,14.3
2022-09-21T16:44:02.253Z,14.2
2022-09-21T16:45:18.502Z,14.2
2022-09-21T16:46:34.742Z,14.1
2022-09-21T16:47:50.980Z,14.1
2022-09-21T16:49:07.217Z,14.1
2022-09-21T16:50:23.463Z,14
2022-09-21T16:51:39.695Z,14
2022-09-21T16:52:55.921Z,14
2022-09-21T16:54:12.173Z,14
2022-09-21T16:55:28.408Z,14
2022-09-21T16:56:44.641Z,14
2022-09-21T16:57:59.907Z,13.9
2022-09-21T16:59:16.141Z,13.9
2022-09-21T17:00:32.379Z,13.8
2022-09-21T17:01:48.609Z,13.7
2022-09-21T17:03:04.851Z,13.7
2022-09-21T17:04:21.101Z,13.6
2022-09-21T17:05:37.342Z,13.5
2022-09-21T17:06:53.564Z,13.4
2022-09-21T17:08:09.811Z,13.3
2022-09-21T17:09:26.040Z,13.3
2022-09-21T17:10:42.293Z,13.2
2022-09-21T17:11:58.533Z,13.2
2022-09-21T17:13:14.755Z,13.1
2022-09-21T17:14:30.027Z,13
2022-09-21T17:15:46.256Z,12.9
2022-09-21T17:17:02.497Z,12.8
2022-09-21T17:18:18.741Z,12.7
2022-09-21T17:19:34.964Z,12.6
2022-09-21T17:20:51.213Z,12.6
2022-09-21T17:22:07.458Z,12.5